^^
Grace C. Lehan Memorial Weather Station Historical Data
Daily Summary for February 21, 2021 Units:  English    Metric   Both
Daily Weekly Monthly Yearly
  High: Low: Average:
Temperature: 70.4 °F 53.5 °F 57.2 °F
Dew Point: 56 °F 50.2 °F 52.2 °F
Humidity: 91% 59% 84%
Wind Speed: 0.1mph 0mph 0mph
Wind Gust: 3mph - -
Wind- - SSW
Pressure: 30.49 in 30.46 in -
Precipitation: 0.00 in    
 
 
Tabular Data for February 21, 2021
Time Temperature Dew Point Pressure Wind Wind Speed Wind Gust Humidity Rainfall Rate (Hourly) solar
00:00 58 °F 50.8 °F 30.47 in Calm     77% 0.00 in 0 W/m2
00:09 57.9 °F 50.7 °F 30.47 in Calm     77% 0.00 in 0 W/m2
00:14 57.8 °F 50.9 °F 30.48 in Calm     77.7% 0.00 in 0 W/m2
00:19 57.8 °F 51 °F 30.48 in Calm     78% 0.00 in 0 W/m2
00:24 57.7 °F 50.9 °F 30.48 in Calm     78% 0.00 in 0 W/m2
00:29 57.7 °F 50.9 °F 30.47 in Calm     78% 0.00 in 0 W/m2
00:34 57.6 °F 50.9 °F 30.48 in Calm     78.3% 0.00 in 0 W/m2
00:39 57.5 °F 51 °F 30.48 in Calm     78.9% 0.00 in 0 W/m2
00:44 57.4 °F 51 °F 30.48 in Calm     79.1% 0.00 in 0 W/m2
00:49 57.4 °F 51.3 °F 30.48 in Calm     80% 0.00 in 0 W/m2
00:54 57.3 °F 51.2 °F 30.48 in Calm     80% 0.00 in 0 W/m2
00:59 57.2 °F 51.1 °F 30.48 in Calm     80% 0.00 in 0 W/m2
01:04 57.2 °F 51.1 °F 30.48 in Calm     80% 0.00 in 0 W/m2
01:09 57.1 °F 51.3 °F 30.48 in Calm     80.7% 0.00 in 0 W/m2
01:14 57.1 °F 51.3 °F 30.48 in Calm     81% 0.00 in 0 W/m2
01:19 57 °F 51.3 °F 30.47 in Calm     81% 0.00 in 0 W/m2
01:24 56.9 °F 51.2 °F 30.47 in Calm     81% 0.00 in 0 W/m2
01:29 56.8 °F 51.1 °F 30.47 in Calm     81% 0.00 in 0 W/m2
01:34 56.7 °F 51.1 °F 30.47 in Calm     81.4% 0.00 in 0 W/m2
01:39 56.6 °F 51.2 °F 30.47 in Calm     82% 0.00 in 0 W/m2
01:44 56.5 °F 51.1 °F 30.47 in Calm     82.3% 0.00 in 0 W/m2
01:49 56.3 °F 51.2 °F 30.47 in Calm     82.9% 0.00 in 0 W/m2
01:54 56.2 °F 51.1 °F 30.47 in Calm     83% 0.00 in 0 W/m2
01:59 56.1 °F 51.1 °F 30.47 in Calm     83% 0.00 in 0 W/m2
02:04 56 °F 51 °F 30.47 in Calm     83.1% 0.00 in 0 W/m2
02:09 55.9 °F 51.2 °F 30.47 in Calm     84% 0.00 in 0 W/m2
02:14 55.8 °F 51.1 °F 30.47 in Calm     84% 0.00 in 0 W/m2
02:19 55.8 °F 51.3 °F 30.47 in Calm     84.9% 0.00 in 0 W/m2
02:24 55.7 °F 51.3 °F 30.47 in Calm     85% 0.00 in 0 W/m2
02:29 55.6 °F 51.2 °F 30.47 in Calm     85% 0.00 in 0 W/m2
02:34 55.5 °F 51.2 °F 30.47 in Calm     85.3% 0.00 in 0 W/m2
02:39 55.5 °F 51.3 °F 30.47 in Calm     86% 0.00 in 0 W/m2
02:44 55.4 °F 51.3 °F 30.47 in Calm     86% 0.00 in 0 W/m2
02:49 55.3 °F 51.2 °F 30.47 in Calm     86% 0.00 in 0 W/m2
02:54 55.2 °F 51.1 °F 30.47 in Calm     86% 0.00 in 0 W/m2
02:59 55.1 °F 51 °F 30.47 in Calm     86% 0.00 in 0 W/m2
03:04 55 °F 50.9 °F 30.47 in Calm     86% 0.00 in 0 W/m2
03:09 55 °F 51.1 °F 30.47 in Calm     86.8% 0.00 in 0 W/m2
03:14 54.8 °F 51.1 °F 30.47 in Calm     87% 0.00 in 0 W/m2
03:19 54.7 °F 51 °F 30.47 in Calm     87% 0.00 in 0 W/m2
03:24 54.6 °F 50.8 °F 30.47 in Calm     87% 0.00 in 0 W/m2
03:29 54.5 °F 50.7 °F 30.47 in Calm     87% 0.00 in 0 W/m2
03:34 54.4 °F 50.6 °F 30.47 in Calm     87% 0.00 in 0 W/m2
03:39 54.3 °F 50.6 °F 30.47 in Calm     87.3% 0.00 in 0 W/m2
03:44 54.2 °F 50.7 °F 30.47 in Calm     87.9% 0.00 in 0 W/m2
03:49 54.1 °F 50.6 °F 30.47 in Calm     88% 0.00 in 0 W/m2
03:54 54 °F 50.5 °F 30.47 in Calm     88% 0.00 in 0 W/m2
03:59 53.9 °F 50.4 °F 30.47 in Calm     88% 0.00 in 0 W/m2
04:00 53.9 °F 50.4 °F 30.47 in Calm     88% 0.00 in 0 W/m2
04:09 53.7 °F 50.2 °F 30.46 in Calm     88% 0.00 in 0 W/m2
04:14 53.7 °F 50.4 °F 30.46 in Calm     88.7% 0.00 in 0 W/m2
04:19 53.6 °F 50.4 °F 30.46 in Calm     89% 0.00 in 0 W/m2
04:24 53.6 °F 50.4 °F 30.46 in Calm     89% 0.00 in 0 W/m2
04:29 53.6 °F 50.6 °F 30.46 in Calm     89.6% 0.00 in 0 W/m2
04:34 53.6 °F 50.7 °F 30.46 in Calm     90% 0.00 in 0 W/m2
04:39 53.5 °F 50.7 °F 30.47 in Calm     90% 0.00 in 0 W/m2
04:44 53.5 °F 50.6 °F 30.47 in Calm     90% 0.00 in 0 W/m2
04:49 53.5 °F 50.6 °F 30.47 in Calm     90% 0.00 in 0 W/m2
04:54 53.5 °F 50.6 °F 30.47 in Calm     90% 0.00 in 0 W/m2
04:59 53.5 °F 50.6 °F 30.47 in Calm     90% 0.00 in 0 W/m2
05:04 53.5 °F 50.6 °F 30.47 in Calm     90% 0.00 in 0 W/m2
05:09 53.6 °F 50.7 °F 30.47 in Calm     90% 0.00 in 0 W/m2
05:14 53.6 °F 50.7 °F 30.47 in Calm     90% 0.00 in 0 W/m2
05:19 53.7 °F 51 °F 30.47 in Calm     90.7% 0.00 in 0 W/m2
05:24 53.7 °F 51.2 °F 30.47 in Calm     91% 0.00 in 0 W/m2
05:29 53.8 °F 51.3 °F 30.47 in Calm     91% 0.00 in 0 W/m2
05:34 53.9 °F 51.3 °F 30.47 in Calm     91% 0.00 in 0 W/m2
05:39 53.9 °F 51.3 °F 30.47 in Calm     91% 0.00 in 0 W/m2
05:44 54 °F 51.4 °F 30.48 in Calm     91% 0.00 in 0 W/m2
05:49 54 °F 51.5 °F 30.48 in Calm     91% 0.00 in 0 W/m2
05:54 54.1 °F 51.5 °F 30.48 in Calm     91% 0.00 in 0 W/m2
05:59 54.2 °F 51.6 °F 30.47 in Calm     91% 0.00 in 5 W/m2
06:04 54.2 °F 51.7 °F 30.48 in Calm     91% 0.00 in 5 W/m2
06:09 54.3 °F 51.7 °F 30.48 in Calm     91% 0.00 in 7 W/m2
06:14 54.4 °F 51.8 °F 30.48 in Calm     91% 0.00 in 7 W/m2
06:19 54.4 °F 51.9 °F 30.48 in Calm     91% 0.00 in 7 W/m2
06:24 54.5 °F 52 °F 30.48 in Calm     91% 0.00 in 9 W/m2
06:29 54.6 °F 52 °F 30.48 in Calm     91% 0.00 in 12 W/m2
06:34 54.7 °F 52.1 °F 30.48 in Calm     91% 0.00 in 14 W/m2
06:39 54.8 °F 52.2 °F 30.48 in Calm     91% 0.00 in 16 W/m2
06:44 54.8 °F 52 °F 30.49 in Calm     90.1% 0.00 in 19 W/m2
06:49 54.9 °F 52 °F 30.48 in Calm     90% 0.00 in 19 W/m2
06:54 55 °F 52.1 °F 30.49 in Calm     90% 0.00 in 19 W/m2
06:59 55.1 °F 52.4 °F 30.49 in Calm     90.7% 0.00 in 23 W/m2
07:04 55.1 °F 52.3 °F 30.49 in Calm     90% 0.00 in 28 W/m2
07:09 55.2 °F 52.4 °F 30.49 in Calm     90% 0.00 in 32 W/m2
07:14 55.3 °F 52.4 °F 30.49 in Calm     90% 0.00 in 39 W/m2
07:19 55.4 °F 52.6 °F 30.49 in Calm     90% 0.00 in 44 W/m2
07:24 55.6 °F 52.7 °F 30.49 in Calm     90% 0.00 in 51 W/m2
07:29 55.7 °F 52.8 °F 30.49 in Calm     90% 0.00 in 63 W/m2
07:34 55.8 °F 52.9 °F 30.49 in Calm     90% 0.00 in 84 W/m2
07:39 55.9 °F 53 °F 30.49 in Calm     90% 0.00 in 88 W/m2
07:44 56.1 °F 53.2 °F 30.49 in Calm     90% 0.00 in 90 W/m2
07:49 56.2 °F 53.3 °F 30.49 in Calm     89.9% 0.00 in 113 W/m2
07:54 56.4 °F 53.3 °F 30.49 in Calm     89.2% 0.00 in 137 W/m2
07:59 56.7 °F 53.6 °F 30.49 in Calm     89.3% 0.00 in 146 W/m2
08:00 56.8 °F 53.6 °F 30.49 in Calm     89% 0.00 in 146 W/m2
08:09 57.2 °F 54 °F 30.49 in Calm     89% 0.00 in 253 W/m2
08:14 57.5 °F 54.3 °F 30.49 in Calm     89% 0.00 in 253 W/m2
08:19 58 °F 54.6 °F 30.49 in Calm     88.4% 0.00 in 244 W/m2
08:24 58.4 °F 54.7 °F 30.49 in Calm     87.4% 0.00 in 225 W/m2
08:29 58.7 °F 54.5 °F 30.49 in Calm     86.1% 0.00 in 220 W/m2
08:34 59 °F 54.6 °F 30.49 in Calm     85.4% 0.00 in 218 W/m2
08:39 59.3 °F 54.8 °F 30.49 in Calm     85% 0.00 in 248 W/m2
08:44 59.8 °F 55.3 °F 30.49 in Calm     84.9% 0.00 in 285 W/m2
08:49 60.2 °F 55 °F 30.48 in Calm     82.8% 0.00 in 406 W/m2
08:54 60.7 °F 55.2 °F 30.48 in Calm     82% 0.00 in 580 W/m2
08:59 61.5 °F 56 °F 30.48 in Calm     82% 0.00 in 543 W/m2
09:04 62.2 °F 55.5 °F 30.48 in Calm     78.5% 0.00 in 357 W/m2
09:09 62.5 °F 55 °F 30.48 in Calm     76.2% 0.00 in 258 W/m2
09:14 62.7 °F 55.1 °F 30.48 in Calm     76.2% 0.00 in 244 W/m2
09:19 62.7 °F 54.9 °F 30.48 in Calm   1 mph 75.6% 0.00 in 243 W/m2
09:24 62.7 °F 54.7 °F 30.48 in Calm   1 mph 75.2% 0.00 in 301 W/m2
09:29 62.8 °F 55.1 °F 30.48 in Calm   1 mph 76% 0.00 in 362 W/m2
09:34 63.2 °F 55.3 °F 30.47 in Calm   2 mph 75.5% 0.00 in 427 W/m2
09:39 63.7 °F 55.8 °F 30.47 in Calm   2 mph 75.4% 0.00 in 464 W/m2
09:44 64.4 °F 56 °F 30.47 in Calm   2 mph 74.2% 0.00 in 420 W/m2
09:49 65.1 °F 55.9 °F 30.47 in Calm   2 mph 72.3% 0.00 in 420 W/m2
09:54 65.4 °F 55.8 °F 30.47 in Calm   2 mph 71.2% 0.00 in 287 W/m2
09:59 65.6 °F 54.5 °F 30.47 in Calm   2 mph 67.3% 0.00 in 388 W/m2
10:04 65.8 °F 53.3 °F 30.46 in Calm   2 mph 63.9% 0.00 in 360 W/m2
10:09 66.2 °F 53.4 °F 30.46 in Calm     63.5% 0.00 in 360 W/m2
10:14 66.5 °F 53.2 °F 30.46 in SSW 0.1 mph 3 mph 62.2% 0.00 in 366 W/m2
10:19 66.9 °F 53.2 °F 30.46 in Calm   3 mph 61.5% 0.00 in 366 W/m2
10:24 67.5 °F 53.4 °F 30.46 in SSW 0.1 mph 3 mph 60.5% 0.00 in 575 W/m2
10:29 68.3 °F 53.9 °F 30.47 in Calm   3 mph 60% 0.00 in 831 W/m2
10:34 69.4 °F 54.4 °F 30.47 in Calm   3 mph 59% 0.00 in 691 W/m2
10:39 70.4 °F 55.5 °F 30.46 in Calm   1 mph 59.1% 0.00 in 946 W/m2
Hartford County Weather
Compliments of Weather Underground - 2 mb